Morris, AL (35116)

1:22 AM CST on March 02, 2015 (GMT -0600)
Promise Manor | Change Station
CLOSE
Current Station
Personal Weather Station
Location: Kimberly, AL
Elevation: 535 ft
Nearby Weather Stations

Elev 535 ft 33.78 °N, 86.76 °W | Updated 14 seconds ago

Overcast
Overcast
51.3 °F
Feels Like 51.3 °F
N
0.0
Wind Variable Wind from West

Today
High -- | Low -- °F
--% Chance of Precip.
Yesterday
High -- | Low -- °F
Precip. -- in
6:14 AM 5:44 PM
Waxing Gibbous, 90% visible
Pressure 30.34 in
Visibility 10.0 miles
Clouds Overcast 600 ft
Dew Point 50 °F
Humidity 97%
Rainfall 0.00 in
Snow Depth Not available.
UV 0 out of 12
Pollen 9.20 out of 12
Air Quality Not available.
Flu Activity Not available.
METAR KBHM 020653Z 17005KT 10SM OVC006 12/11 A3034 RMK AO2 SLP272 T01170106

More Conditions Fewer Conditions

Pressure 30.34 in
Visibility 10.0 miles
Clouds Overcast 600 ft
Dew Point 50 °F
Humidity 97%
Rainfall 0.00 in
Snow Depth Not available.
UV 0 out of 12
Pollen 9.20 out of 12
Air Quality Not available.
Flu Activity Not available.
METAR KBHM 020653Z 17005KT 10SM OVC006 12/11 A3034 RMK AO2 SLP272 T01170106

More Conditions Fewer Conditions

10-Day Weather Forecast

Almanac

Astronomy

Mar. 02, 2015 Rise Set
Actual Time
Civil Twilight
Nautical Twilight
Astronomical Twilight
Moon
Length of Visible Light
Length of Day
Tomorrow will be .
, % of the Moon is Illuminated

Today's Extremes

State Highs State Lows

Community

WunderPhotos

Upload Photos

1,801,739 photos uploaded!

WunderBlogs® & News

Nearby

Air Quality

  Air Quality AQ Index Pollutant
Not available.

Snow Depth

Station Depth Elevation

Earthquake Activity

City Distance Mag. Time & Date
Minimum magnitude displayed is 2.5.

Coastal Water Temperatures

Place Temperature

Nearby Weather Stations